createdAt,value
2023-02-12T00:03:07.089Z,90.47
2023-02-12T00:08:25.637Z,90.35
2023-02-12T00:13:34.395Z,90.23
2023-02-12T00:18:40.017Z,90.42
2023-02-12T00:23:51.157Z,90.35
2023-02-12T00:28:59.338Z,90.64
2023-02-12T00:34:07.370Z,90.71
2023-02-12T00:39:19.179Z,90.78
2023-02-12T00:44:28.526Z,90.79
2023-02-12T00:49:40.847Z,90.90
2023-02-12T00:54:46.721Z,91.11
2023-02-12T00:59:54.949Z,91.27
2023-02-12T01:05:02.755Z,91.42
2023-02-12T01:10:17.493Z,91.10
2023-02-12T01:15:24.236Z,90.97
2023-02-12T01:20:36.252Z,90.67
2023-02-12T01:25:48.331Z,90.53
2023-02-12T01:30:56.182Z,90.39
2023-02-12T01:36:08.312Z,90.35
2023-02-12T01:41:21.246Z,90.21
2023-02-12T01:46:29.020Z,90.18
2023-02-12T01:51:42.896Z,90.34
2023-02-12T01:56:51.794Z,90.22
2023-02-12T02:02:00.538Z,90.14
2023-02-12T02:07:14.556Z,90.11
2023-02-12T02:12:42.864Z,90.07
2023-02-12T02:18:15.286Z,89.78
2023-02-12T02:23:55.338Z,89.76
2023-02-12T02:29:50.221Z,90.07
2023-02-12T02:35:10.781Z,90.46
2023-02-12T02:40:39.390Z,90.38
2023-02-12T02:45:51.720Z,90.30
2023-02-12T02:51:09.349Z,90.14
2023-02-12T02:56:24.802Z,89.96
2023-02-12T03:01:53.094Z,89.90
2023-02-12T03:07:22.122Z,89.76
2023-02-12T03:12:51.972Z,89.61
2023-02-12T03:18:04.741Z,89.74
2023-02-12T03:23:17.137Z,89.58
2023-02-12T03:28:27.879Z,89.48
2023-02-12T03:33:55.561Z,89.49
2023-02-12T03:39:18.882Z,89.63
2023-02-12T03:45:03.524Z,89.36
2023-02-12T03:50:21.537Z,89.62
2023-02-12T03:55:28.177Z,89.68
2023-02-12T04:00:54.190Z,89.54
2023-02-12T04:06:06.303Z,89.49
2023-02-12T04:11:33.573Z,89.51
2023-02-12T04:16:46.668Z,89.54
2023-02-12T04:22:04.717Z,89.54
2023-02-12T04:27:41.118Z,89.65
2023-02-12T04:33:04.743Z,89.66
2023-02-12T04:38:23.081Z,89.58
2023-02-12T04:43:40.101Z,89.50
2023-02-12T04:48:57.608Z,89.58
2023-02-12T04:54:11.366Z,89.60
2023-02-12T04:59:15.337Z,89.47
2023-02-12T05:04:19.484Z,89.53
2023-02-12T05:09:22.930Z,89.54
2023-02-12T05:14:26.415Z,89.57
2023-02-12T05:19:30.029Z,89.57
2023-02-12T05:24:33.630Z,89.43
2023-02-12T05:29:37.906Z,89.35
2023-02-12T05:34:41.440Z,89.43
2023-02-12T05:39:45.187Z,89.33
2023-02-12T05:44:48.679Z,89.50
2023-02-12T05:49:52.188Z,89.49
2023-02-12T05:54:55.639Z,89.33
2023-02-12T05:59:59.248Z,89.37
2023-02-12T06:05:03.027Z,89.29
2023-02-12T06:10:09.149Z,89.42
2023-02-12T06:15:12.710Z,89.46
2023-02-12T06:20:16.833Z,89.44
2023-02-12T06:25:21.012Z,89.31
2023-02-12T06:30:24.912Z,89.35
2023-02-12T06:35:28.428Z,89.35
2023-02-12T06:40:32.070Z,89.22
2023-02-12T06:45:35.877Z,89.35
2023-02-12T06:50:39.294Z,89.22
2023-02-12T06:55:42.708Z,89.20
2023-02-12T07:00:46.220Z,89.04
2023-02-12T07:05:49.657Z,89.19
2023-02-12T07:10:53.123Z,89.18
2023-02-12T07:15:56.994Z,89.12
2023-02-12T07:21:00.890Z,89.15
2023-02-12T07:26:06.571Z,89.08
2023-02-12T07:31:11.975Z,88.98
2023-02-12T07:36:17.192Z,88.89
2023-02-12T07:41:22.690Z,88.91
2023-02-12T07:46:29.468Z,88.79
2023-02-12T07:51:35.080Z,88.73
2023-02-12T07:56:40.163Z,88.60
2023-02-12T08:01:45.890Z,88.59
2023-02-12T08:06:51.475Z,88.49
2023-02-12T08:11:55.255Z,88.44
2023-02-12T08:16:58.754Z,88.28
2023-02-12T08:22:02.560Z,88.19
2023-02-12T08:27:06.283Z,88.22
2023-02-12T08:32:13.386Z,87.98
2023-02-12T08:37:17.092Z,87.91
2023-02-12T08:42:20.591Z,87.86
2023-02-12T08:47:24.057Z,87.72
2023-02-12T08:52:27.636Z,87.71
2023-02-12T08:57:31.128Z,87.71
2023-02-12T09:02:34.651Z,87.63
2023-02-12T09:07:38.580Z,87.40
2023-02-12T09:12:42.029Z,87.38
2023-02-12T09:17:45.638Z,87.26
2023-02-12T09:22:49.173Z,87.29
2023-02-12T09:27:52.667Z,87.19
2023-02-12T09:32:57.248Z,87.02
2023-02-12T09:38:00.850Z,86.68
2023-02-12T09:43:11.735Z,86.30
2023-02-12T09:48:34.295Z,86.40
2023-02-12T09:53:42.102Z,86.19
2023-02-12T09:58:50.126Z,85.77
2023-02-12T10:03:54.082Z,85.21
2023-02-12T10:09:13.568Z,84.72
2023-02-12T10:14:44.035Z,84.72
2023-02-12T10:20:15.497Z,84.57
2023-02-12T10:25:54.481Z,84.29
2023-02-12T10:31:15.492Z,84.28
2023-02-12T10:36:37.171Z,84.08
2023-02-12T10:42:03.115Z,83.33
2023-02-12T10:47:25.705Z,83.15
2023-02-12T10:58:25.624Z,81.86
2023-02-12T11:03:34.797Z,81.13
2023-02-12T11:08:51.700Z,81.34
2023-02-12T11:14:27.042Z,80.31
2023-02-12T11:19:43.576Z,80.49
2023-02-12T11:25:11.857Z,80.43
2023-02-12T11:30:21.426Z,79.05
2023-02-12T11:35:40.681Z,80.12
2023-02-12T11:41:00.454Z,80.13
2023-02-12T11:46:24.384Z,78.56
2023-02-12T11:51:49.974Z,77.88
2023-02-12T11:57:01.207Z,77.98
2023-02-12T12:02:32.377Z,78.20
2023-02-12T12:07:48.856Z,78.28
2023-02-12T12:13:09.845Z,78.63
2023-02-12T12:18:49.188Z,79.17
2023-02-12T12:24:04.466Z,79.24
2023-02-12T12:29:31.901Z,78.66
2023-02-12T12:34:46.535Z,76.58
2023-02-12T12:40:32.166Z,75.32
2023-02-12T12:46:33.503Z,76.70
2023-02-12T12:52:06.303Z,75.26
2023-02-12T12:57:24.884Z,75.53
2023-02-12T13:03:11.968Z,76.46
2023-02-12T13:08:58.478Z,75.40
2023-02-12T13:14:31.617Z,74.92
2023-02-12T13:19:59.006Z,71.82
2023-02-12T13:25:30.371Z,70.10
2023-02-12T13:36:21.738Z,69.06
2023-02-12T13:41:43.384Z,70.54
2023-02-12T13:47:10.868Z,72.03
2023-02-12T13:52:30.712Z,72.74
2023-02-12T13:57:44.089Z,73.07
2023-02-12T14:02:56.005Z,73.54
2023-02-12T14:08:35.064Z,73.69
2023-02-12T14:14:23.109Z,73.11
2023-02-12T14:32:55.001Z,74.31
2023-02-12T14:39:13.004Z,74.55
2023-02-12T14:44:50.107Z,74.77
2023-02-12T14:50:02.681Z,74.67
2023-02-12T14:55:25.075Z,74.64
2023-02-12T15:00:35.750Z,74.83
2023-02-12T15:06:05.761Z,74.97
2023-02-12T15:11:41.558Z,75.33
2023-02-12T15:17:06.037Z,75.40
2023-02-12T15:22:24.437Z,75.49
2023-02-12T15:33:17.941Z,75.56
2023-02-12T15:38:37.271Z,75.68
2023-02-12T15:43:46.687Z,75.80
2023-02-12T15:49:01.026Z,75.81
2023-02-12T15:54:28.632Z,75.78
2023-02-12T16:05:40.035Z,76.29
2023-02-12T16:10:57.157Z,76.40
2023-02-12T16:16:26.923Z,76.21
2023-02-12T16:21:55.125Z,76.34
2023-02-12T16:27:20.646Z,76.50
2023-02-12T17:27:21.256Z,77.29
2023-02-12T17:59:18.372Z,77.14
2023-02-12T18:04:44.008Z,77.32
2023-02-12T18:10:05.668Z,77.18
2023-02-12T18:15:13.368Z,77.46
2023-02-12T18:27:05.489Z,77.76
2023-02-12T18:38:40.570Z,78.19
2023-02-12T18:44:57.652Z,78.26
2023-02-12T19:03:49.315Z,78.85
2023-02-12T19:09:33.050Z,78.94
2023-02-12T19:15:14.371Z,79.08
2023-02-12T19:34:06.624Z,79.40
2023-02-12T19:39:48.320Z,79.51
2023-02-12T19:46:13.034Z,79.83
2023-02-12T19:51:42.208Z,80.07
2023-02-12T19:57:40.860Z,80.57
2023-02-12T20:02:54.407Z,80.78
2023-02-12T20:22:41.005Z,81.60
2023-02-12T20:33:58.214Z,82.93
2023-02-12T20:39:40.433Z,83.34
2023-02-12T20:50:54.792Z,84.08
2023-02-12T20:56:25.036Z,84.46
2023-02-12T21:01:52.178Z,84.62
2023-02-12T21:07:02.448Z,84.68
2023-02-12T21:12:31.002Z,85.17
2023-02-12T21:17:42.700Z,84.88
2023-02-12T21:23:15.870Z,84.99
2023-02-12T21:35:38.326Z,85.32
2023-02-12T21:40:59.595Z,85.73
2023-02-12T21:46:17.168Z,85.41
2023-02-12T21:51:51.778Z,85.56
2023-02-12T21:57:20.121Z,85.38
2023-02-12T22:02:37.155Z,85.81
2023-02-12T22:08:03.701Z,85.61
2023-02-12T22:13:26.131Z,85.75
2023-02-12T22:18:42.269Z,86.00
2023-02-12T22:25:01.136Z,86.09
2023-02-12T22:31:41.641Z,86.19
2023-02-12T22:37:11.764Z,86.58
2023-02-12T22:42:42.350Z,86.58
2023-02-12T22:48:29.149Z,86.59
2023-02-12T22:54:00.291Z,86.50
2023-02-12T22:59:30.650Z,86.67
2023-02-12T23:04:40.656Z,86.62
2023-02-12T23:10:04.192Z,86.53
2023-02-12T23:15:39.104Z,86.66
2023-02-12T23:21:07.812Z,86.90
2023-02-12T23:33:23.410Z,86.79
2023-02-12T23:39:09.210Z,86.88
2023-02-12T23:44:41.772Z,86.93
2023-02-12T23:50:22.792Z,87.03
